Strona główna
METAR-TAF:

METAR-TAF

Lotnisko :

Albert, Francja

Szerokość geograficzna: 49-58-21N, Długość geograficzna: 002-41-29E, wysokość: 111 m

Aktualna obserwacja pogody

Raport powstał 37 minut temu, godzina 13:30 UTC
Wiatr 5 kt od południowo-południowy wschód
Temperatura 5°C
Wilgotność 81%
Ciśnienie 1029 hPa
Widzialność: 9000 m

METAR: LFAQ 061330Z AUTO 15005KT 9000 NSC 05/02 Q1029 NOSIG

czas: 15:07 (14:07 UTC)

Prognoza

Raport powstał 3 godziny i 7 minut temu, godzina 11:00 UTC
Prognoza ważna od 06 godzina 12 UTC do 06 godzina 21 UTC
Wiatr 7 kt od południowo-południowy wschód
Widzialność: 8000 m
Stopniowe zmiany
od 06 godzina 18 UTC do 06 godzina 21 UTC
Widzialność: 4000 m
zamglenie

TAF: LFAQ 061100Z 0612/0621 15007KT 8000 NSC BECMG 0618/0621 4000 BR

Obserwacja i prognoza pogody dla ponad 4000 lotnisk (raport METAR i TAF).

Dostępne stacje oznaczono żółtymi i czerwonymi punktami na mapie.

Najedź kursorem aby zobaczyć nazwę stacji.

Kliknij aby zobaczyć obserwacje i prognozy pogody.

Aby zmienić mapę: kliknij na zielony przycisk z czarnym krzyżykiem, aby powiększyć; na zielony przycisk z myślnikiem, aby pomniejszyć; na zielone strzałki, aby przejść do map sąsiednich.


METAR-TAF: